createdAt,value
2019-02-20T00:00:57.724Z,9.30
2019-02-20T00:01:57.730Z,9.40
2019-02-20T00:02:57.740Z,9.40
2019-02-20T00:03:57.683Z,9.30
2019-02-20T00:04:57.680Z,9.40
2019-02-20T00:05:57.686Z,9.60
2019-02-20T00:06:57.679Z,9.50
2019-02-20T00:07:57.676Z,10.10
2019-02-20T00:08:57.670Z,9.90
2019-02-20T00:09:57.659Z,10.00
2019-02-20T00:10:57.709Z,9.50
2019-02-20T00:11:57.673Z,9.90
2019-02-20T00:12:57.657Z,9.50
2019-02-20T00:13:57.618Z,9.20
2019-02-20T00:14:57.631Z,9.60
2019-02-20T00:15:57.572Z,9.00
2019-02-20T00:16:57.566Z,9.00
2019-02-20T00:17:57.537Z,9.80
2019-02-20T00:18:57.546Z,9.70
2019-02-20T00:19:57.529Z,9.80
2019-02-20T00:20:57.501Z,9.20
2019-02-20T00:21:57.498Z,9.40
2019-02-20T00:22:57.502Z,9.10
2019-02-20T00:23:57.470Z,9.30
2019-02-20T00:24:57.588Z,9.60
2019-02-20T00:25:57.464Z,9.40
2019-02-20T00:26:57.443Z,9.60
2019-02-20T00:27:57.452Z,9.00
2019-02-20T00:28:57.446Z,9.40
2019-02-20T00:29:57.428Z,9.40
2019-02-20T00:30:57.427Z,9.20
2019-02-20T00:31:57.431Z,10.50
2019-02-20T00:32:57.392Z,9.60
2019-02-20T00:33:57.378Z,9.40
2019-02-20T00:34:57.361Z,9.70
2019-02-20T00:35:57.411Z,9.20
2019-02-20T00:36:57.361Z,9.20
2019-02-20T00:37:57.330Z,9.20
2019-02-20T00:38:57.351Z,9.40
2019-02-20T00:39:57.330Z,9.30
2019-02-20T00:40:57.391Z,9.40
2019-02-20T00:41:57.302Z,9.60
2019-02-20T00:42:57.275Z,9.40
2019-02-20T00:43:57.288Z,9.30
2019-02-20T00:44:57.302Z,10.00
2019-02-20T00:45:57.839Z,9.10
2019-02-20T00:46:57.261Z,9.50
2019-02-20T00:47:57.280Z,8.90
2019-02-20T00:48:57.245Z,9.50
2019-02-20T00:49:57.202Z,9.40
2019-02-20T00:50:57.189Z,9.50
2019-02-20T00:51:57.206Z,9.10
2019-02-20T00:52:57.234Z,9.30
2019-02-20T00:53:57.162Z,9.70
2019-02-20T00:54:57.142Z,9.50
2019-02-20T00:55:57.148Z,9.20
2019-02-20T00:56:57.145Z,9.20
2019-02-20T00:57:57.219Z,9.00
2019-02-20T00:58:57.107Z,8.90
2019-02-20T00:59:57.091Z,9.10
2019-02-20T01:00:57.092Z,9.20
2019-02-20T01:01:57.069Z,9.40
2019-02-20T01:02:57.074Z,9.00
2019-02-20T01:03:57.071Z,9.20
2019-02-20T01:04:57.174Z,8.90
2019-02-20T01:05:57.041Z,8.80
2019-02-20T01:06:57.006Z,9.40
2019-02-20T01:07:57.002Z,9.40
2019-02-20T01:08:57.009Z,9.00
2019-02-20T01:09:56.999Z,9.60
2019-02-20T01:10:56.973Z,9.30
2019-02-20T01:11:56.960Z,9.10
2019-02-20T01:12:56.949Z,9.00
2019-02-20T01:13:56.982Z,9.40
2019-02-20T01:14:56.925Z,9.20
2019-02-20T01:15:56.902Z,9.40
2019-02-20T01:16:56.903Z,9.20
2019-02-20T01:17:56.890Z,9.60
2019-02-20T01:18:56.885Z,9.10
2019-02-20T01:19:56.890Z,9.30
2019-02-20T01:20:56.865Z,9.30
2019-02-20T01:21:56.867Z,9.90
2019-02-20T01:22:59.794Z,9.50
2019-02-20T01:23:56.820Z,9.70
2019-02-20T01:24:56.822Z,10.10
2019-02-20T01:25:56.822Z,9.70
2019-02-20T01:26:56.786Z,9.90
2019-02-20T01:27:56.805Z,10.50
2019-02-20T01:28:56.798Z,9.90
2019-02-20T01:29:56.775Z,10.20
2019-02-20T01:30:56.794Z,10.30
2019-02-20T01:31:56.743Z,9.80
2019-02-20T01:32:56.763Z,10.30
2019-02-20T01:33:56.742Z,10.10
2019-02-20T01:34:56.744Z,9.90
2019-02-20T01:35:56.772Z,10.20
2019-02-20T01:36:56.718Z,10.40
2019-02-20T01:37:56.702Z,10.00
2019-02-20T01:38:56.716Z,9.80
2019-02-20T01:39:56.666Z,10.10
2019-02-20T01:40:56.658Z,10.60
2019-02-20T01:41:56.692Z,10.50
2019-02-20T01:42:56.656Z,10.60
2019-02-20T01:43:56.617Z,10.20
2019-02-20T01:44:56.634Z,10.40
2019-02-20T01:45:56.599Z,9.90
2019-02-20T01:46:56.610Z,10.20
2019-02-20T01:47:56.601Z,9.90
2019-02-20T01:48:56.563Z,10.40
2019-02-20T01:49:56.596Z,9.80
2019-02-20T01:50:56.546Z,9.80
2019-02-20T01:51:56.532Z,10.10
2019-02-20T01:52:56.531Z,10.50
2019-02-20T01:53:56.531Z,10.00
2019-02-20T01:54:56.501Z,10.40
2019-02-20T01:55:56.515Z,9.90
2019-02-20T01:56:57.294Z,9.90
2019-02-20T01:57:56.540Z,9.90
2019-02-20T01:58:56.450Z,10.60
2019-02-20T01:59:56.448Z,9.90
2019-02-20T02:00:56.451Z,10.00
2019-02-20T02:01:56.443Z,9.60
2019-02-20T02:02:56.415Z,10.50
2019-02-20T02:03:56.429Z,9.60
2019-02-20T02:04:56.423Z,9.60
2019-02-20T02:05:56.388Z,10.00
2019-02-20T02:06:56.388Z,9.60
2019-02-20T02:07:56.369Z,9.30
2019-02-20T02:08:56.393Z,10.10
2019-02-20T02:09:56.346Z,9.40
2019-02-20T02:10:56.353Z,9.70
2019-02-20T02:11:56.346Z,10.00
2019-02-20T02:12:56.340Z,9.20
2019-02-20T02:13:56.308Z,9.60
2019-02-20T02:14:56.391Z,9.80
2019-02-20T02:15:56.271Z,9.60
2019-02-20T02:16:56.269Z,9.10
2019-02-20T02:17:56.289Z,8.50
2019-02-20T02:18:56.258Z,8.60
2019-02-20T02:19:56.240Z,9.30
2019-02-20T02:20:56.211Z,8.70
2019-02-20T02:21:56.205Z,9.30
2019-02-20T02:22:56.191Z,9.10
2019-02-20T02:23:56.184Z,9.30
2019-02-20T02:24:56.217Z,8.70
2019-02-20T02:25:56.159Z,8.50
2019-02-20T02:26:56.147Z,8.90
2019-02-20T02:27:56.133Z,9.00
2019-02-20T02:28:56.127Z,8.60
2019-02-20T02:29:56.129Z,9.70
2019-02-20T02:30:56.135Z,8.50
2019-02-20T02:31:56.127Z,9.80
2019-02-20T02:32:57.371Z,9.00
2019-02-20T02:33:56.083Z,11.40
2019-02-20T02:34:56.072Z,9.20
2019-02-20T02:35:56.118Z,8.50
2019-02-20T02:36:56.061Z,7.90
2019-02-20T02:37:56.101Z,7.90
2019-02-20T02:38:56.034Z,8.30
2019-02-20T02:39:56.062Z,7.70
2019-02-20T02:40:56.018Z,7.70
2019-02-20T02:41:56.012Z,7.50
2019-02-20T02:42:56.010Z,7.80
2019-02-20T02:43:56.014Z,7.70
2019-02-20T02:44:55.971Z,8.00
2019-02-20T02:45:55.964Z,7.30
2019-02-20T02:46:55.998Z,7.90
2019-02-20T02:47:55.937Z,7.90
2019-02-20T02:48:55.936Z,7.50
2019-02-20T02:49:55.986Z,7.20
2019-02-20T02:50:55.924Z,7.40
2019-02-20T02:51:55.899Z,7.30
2019-02-20T02:52:55.878Z,7.60
2019-02-20T02:53:55.901Z,7.10
2019-02-20T02:54:55.863Z,7.10
2019-02-20T02:55:55.887Z,7.50
2019-02-20T02:56:55.875Z,7.20
2019-02-20T02:57:55.827Z,6.80
2019-02-20T02:58:55.811Z,8.90
2019-02-20T02:59:55.836Z,9.40
2019-02-20T03:00:55.789Z,8.20
2019-02-20T03:01:55.769Z,8.30
2019-02-20T03:02:55.804Z,8.60
2019-02-20T03:03:55.799Z,7.40
2019-02-20T03:04:55.774Z,9.90
2019-02-20T03:05:55.748Z,9.20
2019-02-20T03:06:55.769Z,8.40
2019-02-20T03:07:55.743Z,11.00
2019-02-20T03:08:55.732Z,9.90
2019-02-20T03:09:55.687Z,10.60
2019-02-20T03:10:55.705Z,8.60
2019-02-20T03:11:55.676Z,9.30
2019-02-20T03:12:55.693Z,8.50
2019-02-20T03:13:55.678Z,10.40
2019-02-20T03:14:55.729Z,11.90
2019-02-20T03:15:56.352Z,12.50
2019-02-20T03:16:55.678Z,11.70
2019-02-20T03:17:55.726Z,10.50
2019-02-20T03:18:55.609Z,10.90
2019-02-20T03:19:55.587Z,9.90
2019-02-20T03:20:55.590Z,9.80
2019-02-20T03:21:55.569Z,9.80
2019-02-20T03:22:55.566Z,8.20
2019-02-20T03:23:55.578Z,8.80
2019-02-20T03:24:55.521Z,8.40
2019-02-20T03:25:55.543Z,7.30
2019-02-20T03:26:55.504Z,7.90
2019-02-20T03:27:55.568Z,6.80
2019-02-20T03:28:55.484Z,7.30
2019-02-20T03:29:55.557Z,13.00
2019-02-20T03:30:55.475Z,7.60
2019-02-20T03:31:55.512Z,7.00
2019-02-20T03:32:55.493Z,7.30
2019-02-20T03:33:55.448Z,7.50
2019-02-20T03:34:56.358Z,7.60
2019-02-20T03:35:55.517Z,8.20
2019-02-20T03:36:56.361Z,7.20
2019-02-20T03:37:55.408Z,7.50
2019-02-20T03:38:55.421Z,7.20
2019-02-20T03:39:55.365Z,7.30
2019-02-20T03:40:55.353Z,7.70
2019-02-20T03:41:55.342Z,7.30
2019-02-20T03:42:55.373Z,9.80
2019-02-20T03:43:55.338Z,11.40
2019-02-20T03:44:55.424Z,19.40
2019-02-20T03:45:55.377Z,16.40
2019-02-20T03:46:55.349Z,14.90
2019-02-20T03:47:55.292Z,17.20
2019-02-20T03:48:55.291Z,16.20
2019-02-20T03:49:55.282Z,26.50
2019-02-20T03:50:55.858Z,19.20
2019-02-20T03:51:55.243Z,14.90
2019-02-20T03:52:55.234Z,14.70
2019-02-20T03:53:55.261Z,18.90
2019-02-20T03:54:55.217Z,17.80
2019-02-20T03:55:55.188Z,14.30
2019-02-20T03:56:55.228Z,12.50
2019-02-20T03:57:55.167Z,9.20
2019-02-20T03:58:55.170Z,9.90
2019-02-20T03:59:55.161Z,13.20
2019-02-20T04:00:55.272Z,11.90
2019-02-20T04:01:56.012Z,12.40
2019-02-20T04:02:55.182Z,13.10
2019-02-20T04:03:55.109Z,13.00
2019-02-20T04:04:55.107Z,11.90
2019-02-20T04:05:55.090Z,10.70
2019-02-20T04:06:55.100Z,9.20
2019-02-20T04:07:55.063Z,8.50
2019-02-20T04:08:55.062Z,11.10
2019-02-20T04:09:55.041Z,10.30
2019-02-20T04:10:55.182Z,11.40
2019-02-20T04:11:55.090Z,12.30
2019-02-20T04:12:55.026Z,10.70
2019-02-20T04:13:54.993Z,9.40
2019-02-20T04:14:55.004Z,9.90
2019-02-20T04:15:55.051Z,10.10
2019-02-20T04:16:55.113Z,9.20
2019-02-20T04:17:55.009Z,9.00
2019-02-20T04:18:54.933Z,10.10
2019-02-20T04:19:54.938Z,9.70
2019-02-20T04:20:54.935Z,8.70
2019-02-20T04:21:54.990Z,9.50
2019-02-20T04:22:54.950Z,9.40
2019-02-20T04:24:02.028Z,9.00
2019-02-20T04:24:55.898Z,9.10
2019-02-20T04:25:54.919Z,8.80
2019-02-20T04:26:54.970Z,9.30
2019-02-20T04:27:54.870Z,9.70
2019-02-20T04:28:54.922Z,9.50
2019-02-20T04:29:54.846Z,8.80
2019-02-20T04:30:54.849Z,8.70
2019-02-20T04:31:54.814Z,9.20
2019-02-20T04:32:54.804Z,9.10
2019-02-20T04:33:54.832Z,9.10
2019-02-20T04:34:54.784Z,9.20
2019-02-20T04:35:54.809Z,9.80
2019-02-20T04:36:54.811Z,9.20
2019-02-20T04:37:54.749Z,9.20
2019-02-20T04:38:54.761Z,8.90
2019-02-20T04:39:54.798Z,9.30
2019-02-20T04:40:54.714Z,9.80
2019-02-20T04:41:54.749Z,10.00
2019-02-20T04:42:54.722Z,9.40
2019-02-20T04:43:54.710Z,10.00
2019-02-20T04:44:54.711Z,9.60
2019-02-20T04:45:54.679Z,9.50
2019-02-20T04:46:54.663Z,10.30
2019-02-20T04:47:54.669Z,9.90
2019-02-20T04:48:54.641Z,9.80
2019-02-20T04:49:54.639Z,9.80
2019-02-20T04:50:54.643Z,11.20
2019-02-20T04:51:54.652Z,11.30
2019-02-20T04:52:54.610Z,10.20
2019-02-20T04:53:54.612Z,10.90
2019-02-20T04:54:54.581Z,10.80
2019-02-20T04:55:54.588Z,12.00
2019-02-20T04:56:54.542Z,11.60
2019-02-20T04:57:54.548Z,11.70
2019-02-20T04:58:54.567Z,11.50
2019-02-20T04:59:54.581Z,11.30
2019-02-20T05:00:54.562Z,11.00
2019-02-20T05:01:54.528Z,11.40
2019-02-20T05:02:54.494Z,11.60
2019-02-20T05:03:54.486Z,10.80
2019-02-20T05:04:54.461Z,11.80
2019-02-20T05:05:54.480Z,11.80
2019-02-20T05:06:54.505Z,12.00
2019-02-20T05:07:54.426Z,11.80
2019-02-20T05:08:54.455Z,14.30
2019-02-20T05:09:54.419Z,12.80
2019-02-20T05:10:54.419Z,12.20
2019-02-20T05:11:54.421Z,11.50
2019-02-20T05:12:54.407Z,11.50
2019-02-20T05:13:54.401Z,11.80
2019-02-20T05:14:54.371Z,11.40
2019-02-20T05:15:54.394Z,11.20
2019-02-20T05:16:54.349Z,11.80
2019-02-20T05:17:54.443Z,11.30
2019-02-20T05:18:54.323Z,13.00
2019-02-20T05:19:54.359Z,12.60
2019-02-20T05:20:54.302Z,11.40
2019-02-20T05:21:54.317Z,10.70
2019-02-20T05:22:54.286Z,18.00
2019-02-20T05:23:54.263Z,12.00
2019-02-20T05:24:54.320Z,12.10
2019-02-20T05:25:54.257Z,10.50
2019-02-20T05:26:54.311Z,10.90
2019-02-20T05:27:54.238Z,10.70
2019-02-20T05:28:54.211Z,10.70
2019-02-20T05:29:54.236Z,10.90
2019-02-20T05:30:54.202Z,10.40
2019-02-20T05:31:54.200Z,10.90
2019-02-20T05:32:54.186Z,10.10
2019-02-20T05:33:54.199Z,10.50
2019-02-20T05:34:54.187Z,10.50
2019-02-20T05:35:54.143Z,10.20
2019-02-20T05:36:54.130Z,10.20
2019-02-20T05:37:54.154Z,10.50
2019-02-20T05:38:54.197Z,11.30
2019-02-20T05:39:54.108Z,10.60
2019-02-20T05:40:54.132Z,11.30
2019-02-20T05:41:54.092Z,10.90
2019-02-20T05:42:54.878Z,10.70
2019-02-20T05:43:54.081Z,10.70
2019-02-20T05:44:54.077Z,10.50
2019-02-20T05:45:54.053Z,10.50
2019-02-20T05:46:54.020Z,10.80
2019-02-20T05:47:54.049Z,10.30
2019-02-20T05:48:54.030Z,10.70
2019-02-20T05:49:53.990Z,11.60
2019-02-20T05:50:54.020Z,10.60
2019-02-20T05:51:53.974Z,10.50
2019-02-20T05:52:53.963Z,11.10
2019-02-20T05:53:53.999Z,11.20
2019-02-20T05:54:53.935Z,10.50
2019-02-20T05:55:53.975Z,11.20
2019-02-20T05:56:53.950Z,10.30
2019-02-20T05:57:53.920Z,10.70
2019-02-20T05:58:53.889Z,11.00
2019-02-20T05:59:53.900Z,11.60
2019-02-20T06:00:53.862Z,10.80
2019-02-20T06:01:53.882Z,10.70
2019-02-20T06:02:53.876Z,10.20
2019-02-20T06:03:53.871Z,11.10
2019-02-20T06:04:53.876Z,10.60
2019-02-20T06:05:53.865Z,11.00
2019-02-20T06:06:53.839Z,11.00
2019-02-20T06:07:53.818Z,11.40
2019-02-20T06:08:53.797Z,11.20
2019-02-20T06:09:54.148Z,10.70
2019-02-20T06:10:53.851Z,11.10
2019-02-20T06:11:53.759Z,10.70
2019-02-20T06:12:53.754Z,10.90
2019-02-20T06:13:53.776Z,11.00
2019-02-20T06:14:53.772Z,10.60
2019-02-20T06:15:53.739Z,10.70
2019-02-20T06:16:53.785Z,10.60
2019-02-20T06:17:53.753Z,10.80
2019-02-20T06:18:53.700Z,11.10
2019-02-20T06:19:53.694Z,12.10
2019-02-20T06:20:53.688Z,10.90
2019-02-20T06:21:53.658Z,10.50
2019-02-20T06:22:53.685Z,11.20
2019-02-20T06:23:53.630Z,10.60
2019-02-20T06:24:53.632Z,11.60
2019-02-20T06:25:53.621Z,10.70
2019-02-20T06:26:53.619Z,11.40
2019-02-20T06:27:53.687Z,10.80
2019-02-20T06:28:53.589Z,11.40
2019-02-20T06:29:53.614Z,10.70
2019-02-20T06:30:53.582Z,10.60
2019-02-20T06:31:53.620Z,11.20
2019-02-20T06:32:53.587Z,10.80
2019-02-20T06:33:53.520Z,10.70
2019-02-20T06:34:53.507Z,11.20
2019-02-20T06:35:53.516Z,11.90
2019-02-20T06:36:53.550Z,13.80
2019-02-20T06:37:53.513Z,13.30
2019-02-20T06:38:53.533Z,12.60
2019-02-20T06:39:53.474Z,10.70
2019-02-20T06:40:53.474Z,10.90
2019-02-20T06:41:53.479Z,10.90
2019-02-20T06:42:53.493Z,11.60
2019-02-20T06:43:53.445Z,10.90
2019-02-20T06:44:53.412Z,11.70
2019-02-20T06:45:53.398Z,11.00
2019-02-20T06:46:53.410Z,11.30
2019-02-20T06:47:53.398Z,11.90
2019-02-20T06:48:53.400Z,10.90
2019-02-20T06:49:53.386Z,10.80
2019-02-20T06:50:53.339Z,11.30
2019-02-20T06:51:53.319Z,11.20
2019-02-20T06:52:53.368Z,10.70
2019-02-20T06:53:53.355Z,10.30
2019-02-20T06:54:54.130Z,10.80
2019-02-20T06:55:53.291Z,11.30
2019-02-20T06:56:53.306Z,10.90
2019-02-20T06:57:53.274Z,10.60
2019-02-20T06:58:53.292Z,10.10
2019-02-20T06:59:53.292Z,10.60
2019-02-20T07:00:53.269Z,11.00
2019-02-20T07:01:53.234Z,11.00
2019-02-20T07:02:53.250Z,10.80
2019-02-20T07:03:53.190Z,10.00
2019-02-20T07:04:53.250Z,11.00
2019-02-20T07:05:53.199Z,10.70
2019-02-20T07:06:53.200Z,10.40
2019-02-20T07:07:53.170Z,10.30
2019-02-20T07:08:53.146Z,10.40
2019-02-20T07:09:53.193Z,10.00
2019-02-20T07:10:53.142Z,10.70
2019-02-20T07:11:53.144Z,10.70
2019-02-20T07:12:53.116Z,10.00
2019-02-20T07:13:53.093Z,10.50
2019-02-20T07:14:53.974Z,10.40
2019-02-20T07:15:53.102Z,10.70
2019-02-20T07:16:53.060Z,10.50
2019-02-20T07:17:53.063Z,10.50
2019-02-20T07:18:53.056Z,10.60
2019-02-20T07:19:53.044Z,10.10
2019-02-20T07:20:56.064Z,9.90
2019-02-20T07:21:53.008Z,10.10
2019-02-20T07:22:53.036Z,10.00
2019-02-20T07:23:53.000Z,10.00
2019-02-20T07:24:52.993Z,9.90
2019-02-20T07:25:52.983Z,10.00
2019-02-20T07:26:53.066Z,10.10
2019-02-20T07:27:52.950Z,9.70
2019-02-20T07:28:52.962Z,9.90
2019-02-20T07:29:52.946Z,10.20
2019-02-20T07:30:52.917Z,9.80
2019-02-20T07:31:52.967Z,10.00
2019-02-20T07:32:52.955Z,9.90
2019-02-20T07:33:52.899Z,9.50
2019-02-20T07:34:52.896Z,9.70
2019-02-20T07:35:52.910Z,9.50
2019-02-20T07:36:52.945Z,9.80
2019-02-20T07:37:52.870Z,10.00
2019-02-20T07:38:52.865Z,9.90
2019-02-20T07:39:52.844Z,9.50
2019-02-20T07:40:52.821Z,9.50
2019-02-20T07:41:52.816Z,9.90
2019-02-20T07:42:52.824Z,9.80
2019-02-20T07:43:53.399Z,9.00
2019-02-20T07:44:52.792Z,9.00
2019-02-20T07:45:52.801Z,9.50
2019-02-20T07:46:53.473Z,9.20
2019-02-20T07:47:52.781Z,9.80
2019-02-20T07:48:52.741Z,8.90
2019-02-20T07:49:52.728Z,9.20
2019-02-20T07:50:52.751Z,9.60
2019-02-20T07:51:52.744Z,9.30
2019-02-20T07:52:52.711Z,9.50
2019-02-20T07:53:53.400Z,9.60
2019-02-20T07:54:52.676Z,8.70
2019-02-20T07:55:52.702Z,9.20
2019-02-20T07:56:52.662Z,9.10
2019-02-20T07:57:52.661Z,9.40
2019-02-20T07:58:52.643Z,9.30
2019-02-20T07:59:52.652Z,9.50
2019-02-20T08:00:52.614Z,9.40
2019-02-20T08:01:52.615Z,10.60
2019-02-20T08:02:52.672Z,9.20
2019-02-20T08:03:53.440Z,8.90
2019-02-20T08:04:52.660Z,9.30
2019-02-20T08:05:52.592Z,9.50
2019-02-20T08:06:52.572Z,9.20
2019-02-20T08:07:52.571Z,9.50
2019-02-20T08:08:52.553Z,9.20
2019-02-20T08:09:55.167Z,9.20
2019-02-20T08:10:53.491Z,9.50
2019-02-20T08:11:52.499Z,9.20
2019-02-20T08:12:52.514Z,9.80
2019-02-20T08:13:52.522Z,9.90
2019-02-20T08:14:52.491Z,9.60
2019-02-20T08:15:58.404Z,9.70
2019-02-20T08:16:52.953Z,9.70
2019-02-20T08:17:52.470Z,10.20
2019-02-20T08:18:52.430Z,10.00
2019-02-20T08:19:53.411Z,10.50
2019-02-20T08:20:52.411Z,10.30
2019-02-20T08:21:52.412Z,9.90
2019-02-20T08:22:52.408Z,10.40
2019-02-20T08:23:52.413Z,10.60
2019-02-20T08:24:52.413Z,10.30
2019-02-20T08:25:52.364Z,11.10
2019-02-20T08:26:52.360Z,11.50
2019-02-20T08:27:52.532Z,11.30
2019-02-20T08:28:52.364Z,12.60
2019-02-20T08:29:52.329Z,11.00
2019-02-20T08:30:52.312Z,10.50
2019-02-20T08:31:53.904Z,10.60
2019-02-20T08:32:52.300Z,10.90
2019-02-20T08:33:52.402Z,11.50
2019-02-20T08:34:52.275Z,10.50
2019-02-20T08:35:52.317Z,10.20
2019-02-20T08:36:52.244Z,10.10
2019-02-20T08:37:52.289Z,10.70
2019-02-20T08:38:52.234Z,10.20
2019-02-20T08:39:52.259Z,10.70
2019-02-20T08:40:52.195Z,10.40
2019-02-20T08:41:52.189Z,10.80
2019-02-20T08:42:52.197Z,10.70
2019-02-20T08:43:52.162Z,10.90
2019-02-20T08:44:52.205Z,10.90
2019-02-20T08:45:52.162Z,11.40
2019-02-20T08:46:52.118Z,11.40
2019-02-20T08:47:52.134Z,10.60
2019-02-20T08:48:52.153Z,10.90
2019-02-20T08:49:54.321Z,11.20
2019-02-20T08:50:52.131Z,10.80
2019-02-20T08:51:52.130Z,10.40
2019-02-20T08:52:53.120Z,10.30
2019-02-20T08:53:52.258Z,10.20
2019-02-20T08:54:52.144Z,10.20
2019-02-20T08:55:52.099Z,10.30
2019-02-20T08:56:52.057Z,10.40
2019-02-20T08:57:52.054Z,10.50
2019-02-20T08:58:52.009Z,10.50
2019-02-20T08:59:52.001Z,10.80
2019-02-20T09:00:52.015Z,10.30
2019-02-20T09:01:52.009Z,10.20
2019-02-20T09:02:51.952Z,11.30
2019-02-20T09:03:52.918Z,11.60
2019-02-20T09:04:52.015Z,12.40
2019-02-20T09:05:51.937Z,12.00
2019-02-20T09:06:52.063Z,11.20
2019-02-20T09:07:51.905Z,12.10
2019-02-20T09:08:51.901Z,12.60
2019-02-20T09:09:51.939Z,12.00
2019-02-20T09:10:51.884Z,12.00
2019-02-20T09:11:51.862Z,11.90
2019-02-20T09:12:51.877Z,10.90
2019-02-20T09:13:51.861Z,10.70
2019-02-20T09:14:51.831Z,11.50
2019-02-20T09:15:51.832Z,11.60
2019-02-20T09:16:51.822Z,11.70
2019-02-20T09:17:51.803Z,11.50
2019-02-20T09:18:51.785Z,12.20
2019-02-20T09:19:51.837Z,12.10
2019-02-20T09:20:51.791Z,12.20
2019-02-20T09:21:51.816Z,11.90
2019-02-20T09:22:51.770Z,11.30
2019-02-20T09:23:51.792Z,11.30
2019-02-20T09:24:51.767Z,10.70
2019-02-20T09:25:52.592Z,11.30
2019-02-20T09:26:52.054Z,11.10
2019-02-20T09:27:51.773Z,10.50
2019-02-20T09:28:52.918Z,10.50
2019-02-20T09:29:51.671Z,10.40
2019-02-20T09:30:51.707Z,10.60
2019-02-20T09:31:51.666Z,11.30
2019-02-20T09:32:51.673Z,10.90
2019-02-20T09:33:51.611Z,11.10
2019-02-20T09:34:51.621Z,10.60
2019-02-20T09:35:51.628Z,10.60
2019-02-20T09:36:51.623Z,10.90
2019-02-20T09:37:51.587Z,10.90
2019-02-20T09:38:51.611Z,11.20
2019-02-20T09:39:51.590Z,11.20
2019-02-20T09:40:51.565Z,10.60
2019-02-20T09:41:51.554Z,11.20
2019-02-20T09:42:51.655Z,11.00
2019-02-20T09:43:51.533Z,10.40
2019-02-20T09:44:51.534Z,11.10
2019-02-20T09:45:51.511Z,10.80
2019-02-20T09:46:51.523Z,11.10
2019-02-20T09:47:51.488Z,11.00
2019-02-20T09:48:51.521Z,10.80
2019-02-20T09:49:51.450Z,10.10
2019-02-20T09:50:51.438Z,10.30
2019-02-20T09:51:51.452Z,10.20
2019-02-20T09:52:52.791Z,10.80
2019-02-20T09:53:51.429Z,11.40
2019-02-20T09:54:51.484Z,11.30
2019-02-20T09:55:52.028Z,10.30
2019-02-20T09:56:51.399Z,10.50
2019-02-20T09:57:51.376Z,10.80
2019-02-20T09:58:51.391Z,10.90
2019-02-20T09:59:51.371Z,10.10
2019-02-20T10:00:51.366Z,10.70
2019-02-20T10:01:51.343Z,10.30
2019-02-20T10:02:51.358Z,10.90
2019-02-20T10:03:51.333Z,10.80
2019-02-20T10:04:51.318Z,10.70
2019-02-20T10:05:51.303Z,11.10
2019-02-20T10:06:51.275Z,11.90
2019-02-20T10:07:51.412Z,10.90
2019-02-20T10:08:51.316Z,10.70
2019-02-20T10:09:51.243Z,11.70
2019-02-20T10:10:51.235Z,11.00
2019-02-20T10:11:51.232Z,11.00
2019-02-20T10:12:51.207Z,11.00
2019-02-20T10:13:51.228Z,10.60
2019-02-20T10:14:51.239Z,10.50
2019-02-20T10:15:51.183Z,10.80
2019-02-20T10:16:51.194Z,10.90
2019-02-20T10:17:51.163Z,12.30
2019-02-20T10:18:51.161Z,14.00
2019-02-20T10:19:51.225Z,13.10
2019-02-20T10:20:51.127Z,12.70
2019-02-20T10:21:51.119Z,11.30
2019-02-20T10:22:51.116Z,10.60
2019-02-20T10:23:51.103Z,11.80
2019-02-20T10:24:51.090Z,12.80
2019-02-20T10:26:00.342Z,11.10
2019-02-20T10:27:00.186Z,11.10
2019-02-20T10:27:52.075Z,11.00
2019-02-20T10:28:51.082Z,10.50
2019-02-20T10:29:51.034Z,11.50
2019-02-20T10:30:51.035Z,11.30
2019-02-20T10:31:51.034Z,10.80
2019-02-20T10:32:51.004Z,11.40
2019-02-20T10:33:50.994Z,12.30
2019-02-20T10:34:50.973Z,11.90
2019-02-20T10:35:51.012Z,13.00
2019-02-20T10:36:50.986Z,12.00
2019-02-20T10:37:52.890Z,12.30
2019-02-20T10:38:50.971Z,11.60
2019-02-20T10:39:50.964Z,11.50
2019-02-20T10:40:50.915Z,11.40
2019-02-20T10:41:50.939Z,11.20
2019-02-20T10:42:50.918Z,11.80
2019-02-20T10:43:50.875Z,11.10
2019-02-20T10:44:50.868Z,12.30
2019-02-20T10:45:51.434Z,12.70
2019-02-20T10:46:50.887Z,12.90
2019-02-20T10:47:50.843Z,14.00
2019-02-20T10:48:50.838Z,11.60
2019-02-20T10:49:50.827Z,13.20
2019-02-20T10:50:50.818Z,12.30
2019-02-20T10:51:50.808Z,13.00
2019-02-20T10:52:50.862Z,19.60
2019-02-20T10:53:50.777Z,21.60
2019-02-20T10:54:57.616Z,20.80
2019-02-20T10:55:51.821Z,17.50
2019-02-20T10:56:50.774Z,16.20
2019-02-20T10:57:50.760Z,16.90
2019-02-20T10:58:50.799Z,14.60
2019-02-20T10:59:50.732Z,11.40
2019-02-20T11:00:50.733Z,11.20
2019-02-20T11:01:50.774Z,11.30
2019-02-20T11:02:50.765Z,11.70
2019-02-20T11:03:50.699Z,11.60
2019-02-20T11:04:50.705Z,11.50
2019-02-20T11:05:50.653Z,14.40
2019-02-20T11:06:50.654Z,28.70
2019-02-20T11:07:50.641Z,15.90
2019-02-20T11:08:50.631Z,11.50
2019-02-20T11:09:50.603Z,10.90
2019-02-20T11:10:50.660Z,10.40
2019-02-20T11:11:50.644Z,11.10
2019-02-20T11:12:50.587Z,11.10
2019-02-20T11:13:50.576Z,11.10
2019-02-20T11:14:50.541Z,11.60
2019-02-20T11:15:50.574Z,11.60
2019-02-20T11:16:50.551Z,11.70
2019-02-20T11:17:50.518Z,11.30
2019-02-20T11:18:50.550Z,11.90
2019-02-20T11:19:50.546Z,11.40
2019-02-20T11:20:50.480Z,12.30
2019-02-20T11:21:50.537Z,11.50
2019-02-20T11:22:50.488Z,11.90
2019-02-20T11:23:50.472Z,10.90
2019-02-20T11:24:50.496Z,11.20
2019-02-20T11:25:50.452Z,10.90
2019-02-20T11:26:54.270Z,11.40
2019-02-20T11:27:50.406Z,11.10
2019-02-20T11:28:50.441Z,11.90
2019-02-20T11:29:50.409Z,12.30
2019-02-20T11:30:50.410Z,12.90
2019-02-20T11:31:50.363Z,12.50
2019-02-20T11:32:50.346Z,12.00
2019-02-20T11:33:50.360Z,11.50
2019-02-20T11:34:50.339Z,12.00
2019-02-20T11:35:50.358Z,11.50
2019-02-20T11:36:50.314Z,11.60
2019-02-20T11:37:50.339Z,11.90
2019-02-20T11:38:50.315Z,11.90
2019-02-20T11:39:50.283Z,12.20
2019-02-20T11:40:50.362Z,12.40
2019-02-20T11:41:50.282Z,12.50
2019-02-20T11:42:50.268Z,14.00
2019-02-20T11:43:50.266Z,13.60
2019-02-20T11:44:50.250Z,17.00
2019-02-20T11:45:50.238Z,13.70
2019-02-20T11:46:50.224Z,11.30
2019-02-20T11:47:50.228Z,11.60
2019-02-20T11:48:50.203Z,11.60
2019-02-20T11:49:50.208Z,11.70
2019-02-20T11:50:50.183Z,11.60
2019-02-20T11:51:50.200Z,11.10
2019-02-20T11:52:50.192Z,11.00
2019-02-20T11:53:50.127Z,11.90
2019-02-20T11:54:50.140Z,11.20
2019-02-20T11:55:50.176Z,11.50
2019-02-20T11:56:50.156Z,11.50
2019-02-20T11:57:50.097Z,11.40
2019-02-20T11:58:50.134Z,11.30
2019-02-20T11:59:50.105Z,11.10
2019-02-20T12:00:50.072Z,10.60
2019-02-20T12:01:50.121Z,11.10
2019-02-20T12:02:50.055Z,11.10
2019-02-20T12:03:50.061Z,11.60
2019-02-20T12:04:50.026Z,11.90
2019-02-20T12:05:50.004Z,12.20
2019-02-20T12:06:49.998Z,11.20
2019-02-20T12:07:49.983Z,11.30
2019-02-20T12:08:49.984Z,11.00
2019-02-20T12:09:49.988Z,11.70
2019-02-20T12:10:49.973Z,11.50
2019-02-20T12:11:49.942Z,11.20
2019-02-20T12:12:50.020Z,11.00
2019-02-20T12:13:49.923Z,10.90
2019-02-20T12:14:49.917Z,11.90
2019-02-20T12:15:49.910Z,11.30
2019-02-20T12:16:49.902Z,11.50
2019-02-20T12:17:49.886Z,11.30
2019-02-20T12:18:49.873Z,10.70
2019-02-20T12:19:49.841Z,11.00
2019-02-20T12:20:49.833Z,10.90
2019-02-20T12:21:49.836Z,10.70
2019-02-20T12:22:49.809Z,11.20
2019-02-20T12:23:49.879Z,11.40
2019-02-20T12:24:49.802Z,11.10
2019-02-20T12:25:49.810Z,10.80
2019-02-20T12:26:49.779Z,10.90
2019-02-20T12:27:49.804Z,11.20
2019-02-20T12:28:49.798Z,11.30
2019-02-20T12:29:49.761Z,11.90
2019-02-20T12:30:49.755Z,11.70
2019-02-20T12:31:52.472Z,11.50
2019-02-20T12:32:49.726Z,12.20
2019-02-20T12:33:49.708Z,13.20
2019-02-20T12:34:49.780Z,11.50
2019-02-20T12:35:49.692Z,10.90
2019-02-20T12:36:49.722Z,11.30
2019-02-20T12:37:49.691Z,10.80
2019-02-20T12:38:49.658Z,11.10
2019-02-20T12:39:49.651Z,11.10
2019-02-20T12:40:50.925Z,10.60
2019-02-20T12:41:49.615Z,10.70
2019-02-20T12:42:49.680Z,10.50
2019-02-20T12:43:49.611Z,11.50
2019-02-20T12:44:49.628Z,11.40
2019-02-20T12:45:49.590Z,10.90
2019-02-20T12:46:49.600Z,11.80
2019-02-20T12:47:49.574Z,11.40
2019-02-20T12:48:49.540Z,11.20
2019-02-20T12:49:51.385Z,11.00
2019-02-20T12:50:49.566Z,11.60
2019-02-20T12:51:49.550Z,11.90
2019-02-20T12:52:49.607Z,12.10
2019-02-20T12:53:49.567Z,12.20
2019-02-20T12:54:49.476Z,12.30
2019-02-20T12:55:49.502Z,12.20
2019-02-20T12:56:49.490Z,11.80
2019-02-20T12:57:49.445Z,12.00
2019-02-20T12:58:49.432Z,13.10
2019-02-20T12:59:49.439Z,15.20
2019-02-20T13:00:49.466Z,12.80
2019-02-20T13:01:49.402Z,12.60